DECEMBER 22,2014


METAR SMJP 221200Z 07004KT 9999 FEW005 FEW015CB SCT018 26/25 Q1014 NOSIG=

METAR SMZO 221200Z 00000KT 8000 VCSH SCT010 FEW018CB SCT035 25/24 Q1014 TEMPO 5000 SHRA=

METAR SMNI 221200Z 12004KT 9999 FEW015 SCT030 27/24 Q1014 NOSIG=

METAR SMST 221200Z 00000KT 9999 SCT010 BKN020 25/24 Q////=